Time;durP1;ratioP1;P1;durP2;ratioP2;P2;SDS_P1;SDS_P2;PMS_P1;PMS_P2;Temp;Humidity;BMP_temperature;BMP_pressure;BME280_temperature;BME280_humidity;BME280_pressure;Samples;Min_cycle;Max_cycle;Signal;HPM_P1;HPM_P2
2023/04/23 00:02:02;;;;;;;3.00;1.22;;;11.80;91.00;;;;;;1905492;75;21019;-53
2023/04/23 00:04:37;;;;;;;4.60;1.77;;;11.80;91.10;;;;;;1905352;75;21082;-54
2023/04/23 00:07:03;;;;;;;3.45;1.47;;;11.80;91.10;;;;;;1903451;74;21095;-53
2023/04/23 00:09:33;;;;;;;4.87;1.55;;;11.80;91.10;;;;;;1905364;75;21128;-54
2023/04/23 00:12:03;;;;;;;2.60;1.50;;;11.80;91.10;;;;;;1905524;74;21019;-53
2023/04/23 00:14:32;;;;;;;2.75;1.47;;;11.80;91.10;;;;;;1905465;74;21122;-53
2023/04/23 00:17:01;;;;;;;1.72;1.12;;;11.90;91.10;;;;;;1905523;75;21007;-53
2023/04/23 00:19:31;;;;;;;1.45;1.10;;;11.90;91.10;;;;;;1905475;75;21011;-52
2023/04/23 00:22:01;;;;;;;2.50;1.47;;;11.90;91.10;;;;;;1905449;75;21024;-53
2023/04/23 00:24:32;;;;;;;3.35;1.92;;;11.90;91.00;;;;;;1905573;75;21067;-52
2023/04/23 00:27:01;;;;;;;4.75;2.00;;;11.90;91.00;;;;;;1905362;75;21478;-51
2023/04/23 00:29:31;;;;;;;3.85;1.70;;;11.90;90.90;;;;;;1905463;74;21113;-54
2023/04/23 00:32:02;;;;;;;4.08;2.10;;;11.90;90.90;;;;;;1905486;75;21027;-54
2023/04/23 00:34:31;;;;;;;4.72;1.75;;;11.90;90.90;;;;;;1905357;75;21079;-54
2023/04/23 00:37:04;;;;;;;2.62;1.57;;;11.90;90.90;;;;;;1905421;75;21071;-53
2023/04/23 00:39:31;;;;;;;6.92;1.60;;;11.90;90.90;;;;;;1905200;75;21099;-53
2023/04/23 00:42:05;;;;;;;4.55;1.90;;;11.90;91.00;;;;;;1905297;75;21147;-54
2023/04/23 00:44:30;;;;;;;3.45;2.20;;;11.90;91.00;;;;;;1904947;74;21188;-52
2023/04/23 00:47:00;;;;;;;3.42;1.85;;;11.80;91.00;;;;;;1905266;74;21640;-54
2023/04/23 00:49:29;;;;;;;5.62;2.10;;;11.80;91.10;;;;;;1905428;75;21031;-54
2023/04/23 00:51:59;;;;;;;3.58;1.87;;;11.90;91.00;;;;;;1905426;75;21128;-54
2023/04/23 00:54:28;;;;;;;4.55;2.20;;;11.80;91.00;;;;;;1905292;75;21118;-52
2023/04/23 00:56:58;;;;;;;5.53;1.70;;;11.80;91.00;;;;;;1905297;74;21060;-54
2023/04/23 00:59:28;;;;;;;5.53;2.02;;;11.80;91.00;;;;;;1905317;75;21114;-51
2023/04/23 01:01:58;;;;;;;1.70;1.60;;;11.90;91.10;;;;;;1905357;75;21136;-53
2023/04/23 01:04:29;;;;;;;10.32;2.02;;;11.80;91.10;;;;;;1905304;75;21081;-53
2023/04/23 01:06:58;;;;;;;7.08;2.05;;;11.80;91.00;;;;;;1905242;75;21077;-53
2023/04/23 01:09:28;;;;;;;4.83;2.45;;;11.90;91.10;;;;;;1905324;75;21431;-51
2023/04/23 01:11:58;;;;;;;4.65;2.25;;;11.80;91.10;;;;;;1905460;75;21031;-54
2023/04/23 01:14:27;;;;;;;4.35;2.37;;;11.80;91.10;;;;;;1905481;75;21014;-52
2023/04/23 01:16:57;;;;;;;6.05;2.40;;;11.80;91.10;;;;;;1905461;75;21099;-54
2023/04/23 01:19:26;;;;;;;3.95;3.08;;;11.80;91.20;;;;;;1905455;74;21577;-51
2023/04/23 01:21:58;;;;;;;4.25;2.55;;;11.80;91.20;;;;;;1905424;75;21043;-52
2023/04/23 01:24:29;;;;;;;2.83;1.82;;;11.80;91.20;;;;;;1905487;75;21051;-53
2023/04/23 01:26:58;;;;;;;6.03;2.22;;;11.80;91.20;;;;;;1905311;74;21066;-52
2023/04/23 01:29:28;;;;;;;4.97;2.37;;;11.80;91.20;;;;;;1916714;74;21188;-52
2023/04/23 01:31:59;;;;;;;3.87;2.00;;;11.80;91.10;;;;;;1924848;74;21195;-53
2023/04/23 01:34:28;;;;;;;4.03;2.47;;;11.80;91.10;;;;;;1924914;74;21078;-50
2023/04/23 01:37:02;;;;;;;2.30;1.72;;;11.80;91.10;;;;;;1924827;74;21176;-53
2023/04/23 01:39:31;;;;;;;1.98;1.40;;;11.70;91.10;;;;;;1924797;74;21173;-53
2023/04/23 01:42:01;;;;;;;1.60;1.32;;;11.70;91.10;;;;;;1924853;74;21120;-53
2023/04/23 01:44:30;;;;;;;1.82;1.40;;;11.70;91.00;;;;;;1924764;74;21088;-52
2023/04/23 01:46:59;;;;;;;2.58;2.00;;;11.70;91.00;;;;;;1924916;74;21007;-52
2023/04/23 01:49:29;;;;;;;3.90;1.40;;;11.70;91.00;;;;;;1924780;74;21023;-53
2023/04/23 01:51:58;;;;;;;1.55;1.37;;;11.70;90.90;;;;;;1924828;74;21062;-53
2023/04/23 01:54:27;;;;;;;3.60;1.45;;;11.70;91.00;;;;;;1924820;74;21089;-53
2023/04/23 01:56:57;;;;;;;2.85;1.57;;;11.70;91.00;;;;;;1924843;74;21406;-50
2023/04/23 01:59:27;;;;;;;2.17;1.40;;;11.70;90.90;;;;;;1924694;74;21092;-51
2023/04/23 02:01:56;;;;;;;3.12;1.72;;;11.70;90.90;;;;;;1924704;74;20983;-53
2023/04/23 02:04:25;;;;;;;1.98;1.30;;;11.70;90.90;;;;;;1924678;74;21074;-53
2023/04/23 02:06:54;;;;;;;1.50;1.40;;;11.70;90.90;;;;;;1924608;74;21148;-53
2023/04/23 02:09:24;;;;;;;3.22;1.30;;;11.70;90.90;;;;;;1924818;74;21060;-53
2023/04/23 02:11:53;;;;;;;5.33;1.67;;;11.80;90.90;;;;;;1924697;74;21002;-53
2023/04/23 02:14:22;;;;;;;3.60;1.75;;;11.80;90.90;;;;;;1924736;74;21014;-53
2023/04/23 02:16:52;;;;;;;5.60;1.40;;;11.80;90.90;;;;;;1924833;74;21011;-55
2023/04/23 02:19:21;;;;;;;3.67;1.40;;;11.80;90.90;;;;;;1925013;74;21010;-54
2023/04/23 02:21:50;;;;;;;3.05;1.42;;;11.80;90.90;;;;;;1924923;74;21014;-52
2023/04/23 02:24:19;;;;;;;1.60;1.50;;;11.80;90.90;;;;;;1924876;74;21022;-53
2023/04/23 02:26:48;;;;;;;4.45;1.50;;;11.90;91.00;;;;;;1924810;74;21263;-53
2023/04/23 02:29:17;;;;;;;3.25;1.50;;;11.90;91.00;;;;;;1919550;74;21050;-53
2023/04/23 02:31:47;;;;;;;3.75;1.40;;;11.90;90.90;;;;;;1905407;75;21071;-53
2023/04/23 02:34:16;;;;;;;3.12;1.37;;;11.90;90.90;;;;;;1905416;75;21198;-54
2023/04/23 02:36:45;;;;;;;4.25;1.57;;;11.90;90.90;;;;;;1905516;75;21008;-51
2023/04/23 02:39:14;;;;;;;3.30;1.47;;;11.90;90.90;;;;;;1905366;74;21136;-54
2023/04/23 02:41:44;;;;;;;5.75;1.50;;;11.80;90.80;;;;;;1905412;75;21015;-52
2023/04/23 02:44:13;;;;;;;4.12;1.72;;;11.80;90.80;;;;;;1905424;75;21089;-53
2023/04/23 02:46:42;;;;;;;6.28;2.62;;;11.80;90.90;;;;;;1905352;75;21095;-53
2023/04/23 02:49:11;;;;;;;4.62;1.67;;;11.80;90.80;;;;;;1905461;75;21043;-51
2023/04/23 02:51:40;;;;;;;3.95;1.67;;;11.80;90.90;;;;;;1905395;75;21130;-54
2023/04/23 02:54:10;;;;;;;3.45;1.77;;;11.80;90.90;;;;;;1905521;75;21039;-54
2023/04/23 02:56:39;;;;;;;4.83;1.65;;;11.80;90.90;;;;;;1905502;75;21526;-54
2023/04/23 02:59:08;;;;;;;5.92;2.05;;;11.80;91.00;;;;;;1905362;74;21168;-53
2023/04/23 03:01:37;;;;;;;6.67;1.60;;;11.80;91.10;;;;;;1905479;75;21095;-53
2023/04/23 03:04:07;;;;;;;1.92;1.67;;;11.80;91.20;;;;;;1905366;75;21257;-53
2023/04/23 03:06:36;;;;;;;5.12;2.08;;;11.90;91.20;;;;;;1905451;75;21088;-53
2023/04/23 03:09:05;;;;;;;3.33;1.60;;;11.90;91.20;;;;;;1905289;75;21511;-54
2023/04/23 03:11:34;;;;;;;6.85;1.95;;;11.90;91.10;;;;;;1905353;75;21129;-54
2023/04/23 03:14:03;;;;;;;4.10;1.60;;;11.90;91.20;;;;;;1905318;75;21003;-52
2023/04/23 03:16:33;;;;;;;4.35;1.87;;;11.90;91.20;;;;;;1905334;75;21122;-54
2023/04/23 03:19:02;;;;;;;4.85;1.55;;;11.90;91.30;;;;;;1905247;75;21091;-53
2023/04/23 03:21:31;;;;;;;2.52;2.00;;;12.00;91.20;;;;;;1905307;75;21073;-53
2023/04/23 03:24:00;;;;;;;5.97;1.90;;;12.10;91.20;;;;;;1905366;75;21000;-50
2023/04/23 03:26:29;;;;;;;3.85;1.67;;;12.30;91.10;;;;;;1905362;75;21478;-53
2023/04/23 03:28:58;;;;;;;2.70;1.60;;;12.40;91.00;;;;;;1905278;75;21533;-53
2023/04/23 03:31:28;;;;;;;4.25;1.40;;;12.50;91.00;;;;;;1922431;74;21070;-51
2023/04/23 03:33:57;;;;;;;4.55;1.72;;;12.60;90.70;;;;;;1924606;74;20983;-52
2023/04/23 03:36:27;;;;;;;3.65;1.85;;;12.70;90.60;;;;;;1924002;74;21112;-53
2023/04/23 03:38:57;;;;;;;3.15;1.20;;;12.80;90.50;;;;;;1924592;74;21458;-53
2023/04/23 03:41:27;;;;;;;3.08;1.50;;;12.80;90.40;;;;;;1924626;74;21086;-50
2023/04/23 03:43:56;;;;;;;6.97;1.82;;;12.80;90.20;;;;;;1924696;74;21011;-51
2023/04/23 03:46:30;;;;;;;4.67;1.17;;;12.80;90.30;;;;;;1922843;74;21074;-52
2023/04/23 03:48:59;;;;;;;4.35;1.60;;;12.90;90.40;;;;;;1924735;74;21015;-53
2023/04/23 03:51:28;;;;;;;7.60;2.00;;;12.90;90.30;;;;;;1925027;74;21054;-53
2023/04/23 03:53:57;;;;;;;3.50;1.75;;;13.00;90.30;;;;;;1924939;74;21069;-53
2023/04/23 03:56:42;;;;;;;;;;;13.00;90.30;;;;;;1829798;78;21070;-53
2023/04/23 03:59:15;;;;;;;2.67;1.50;;;13.00;90.00;;;;;;1895802;74;20135;-52
2023/04/23 04:01:47;;;;;;;5.20;1.90;;;13.00;90.20;;;;;;1924757;74;21171;-52
2023/04/23 04:04:16;;;;;;;3.22;1.60;;;13.00;90.10;;;;;;1924831;74;21078;-51
2023/04/23 04:06:45;;;;;;;6.05;2.02;;;13.00;90.20;;;;;;1924825;74;20995;-54
2023/04/23 04:09:14;;;;;;;6.55;2.40;;;13.00;90.20;;;;;;1924863;74;21520;-53
2023/04/23 04:11:43;;;;;;;3.95;1.85;;;12.90;90.20;;;;;;1924802;74;21035;-53
2023/04/23 04:14:12;;;;;;;6.10;2.15;;;13.00;90.20;;;;;;1924718;74;21026;-52
2023/04/23 04:16:42;;;;;;;4.37;1.80;;;13.00;90.20;;;;;;1924835;74;21007;-52
2023/04/23 04:19:11;;;;;;;7.97;1.90;;;13.00;90.20;;;;;;1924682;74;21018;-53
2023/04/23 04:21:40;;;;;;;6.85;2.27;;;13.00;90.20;;;;;;1924722;74;21003;-53
2023/04/23 04:24:10;;;;;;;2.40;1.80;;;13.00;90.30;;;;;;1924729;74;21022;-53
2023/04/23 04:26:39;;;;;;;2.75;1.98;;;13.00;90.30;;;;;;1924669;74;21199;-53
2023/04/23 04:29:09;;;;;;;7.47;2.72;;;13.00;90.30;;;;;;1924682;74;21062;-52
2023/04/23 04:31:38;;;;;;;4.03;1.90;;;13.00;90.40;;;;;;1924840;74;21536;-52
2023/04/23 04:34:09;;;;;;;2.83;1.90;;;13.00;90.40;;;;;;1924715;74;21051;-52
2023/04/23 04:36:38;;;;;;;3.58;2.00;;;13.00;90.50;;;;;;1924848;74;21548;-53
2023/04/23 04:39:07;;;;;;;7.15;2.62;;;13.00;90.00;;;;;;1924762;74;21059;-52
2023/04/23 04:41:40;;;;;;;9.00;2.40;;;13.00;90.30;;;;;;1924712;74;21088;-53
2023/04/23 04:44:09;;;;;;;2.70;1.92;;;13.00;90.40;;;;;;1924799;74;21014;-51
2023/04/23 04:46:39;;;;;;;7.85;4.10;;;13.00;90.40;;;;;;1924659;74;21086;-52
2023/04/23 04:49:10;;;;;;;5.70;2.27;;;13.00;90.50;;;;;;1924825;74;20999;-51
2023/04/23 04:51:40;;;;;;;2.20;2.00;;;13.00;90.50;;;;;;1923612;74;21082;-51
2023/04/23 04:54:09;;;;;;;5.85;3.42;;;12.90;90.50;;;;;;1924832;74;21007;-52
2023/04/23 04:56:38;;;;;;;4.17;2.30;;;12.90;90.60;;;;;;1924957;74;21022;-53
2023/04/23 04:59:07;;;;;;;4.22;2.65;;;13.00;90.60;;;;;;1924805;74;21044;-54
2023/04/23 05:01:36;;;;;;;4.87;2.42;;;13.00;90.70;;;;;;1924838;74;21077;-54
2023/04/23 05:04:05;;;;;;;4.05;2.33;;;13.00;90.80;;;;;;1924789;74;21023;-53
2023/04/23 05:06:34;;;;;;;4.83;2.62;;;13.00;90.80;;;;;;1924798;74;21532;-52
2023/04/23 05:09:04;;;;;;;5.00;3.30;;;13.00;90.90;;;;;;1924790;74;21014;-54
2023/04/23 05:11:34;;;;;;;7.42;2.70;;;13.00;90.90;;;;;;1924964;74;21101;-54
2023/04/23 05:14:03;;;;;;;5.80;2.90;;;13.00;90.90;;;;;;1924761;74;21078;-54
2023/04/23 05:16:33;;;;;;;3.85;2.90;;;13.10;91.00;;;;;;1924983;74;20982;-52
2023/04/23 05:19:02;;;;;;;4.17;3.20;;;13.10;91.10;;;;;;1924784;74;21011;-51
2023/04/23 05:21:31;;;;;;;5.10;2.50;;;13.10;91.00;;;;;;1924766;74;21078;-51
2023/04/23 05:24:00;;;;;;;4.72;2.77;;;13.10;91.10;;;;;;1924813;74;21026;-55
2023/04/23 05:26:29;;;;;;;8.88;2.92;;;13.10;91.10;;;;;;1924752;74;21154;-51
2023/04/23 05:28:59;;;;;;;3.25;2.20;;;13.10;91.10;;;;;;1924781;74;21129;-53
2023/04/23 05:31:28;;;;;;;7.92;2.47;;;13.10;91.10;;;;;;1917757;74;21071;-50
2023/04/23 05:33:57;;;;;;;4.47;2.40;;;13.10;91.10;;;;;;1905386;75;21153;-53
2023/04/23 05:36:27;;;;;;;8.18;3.25;;;13.10;91.10;;;;;;1905448;75;21019;-53
2023/04/23 05:38:56;;;;;;;10.72;4.25;;;13.10;91.10;;;;;;1905457;75;21063;-53
2023/04/23 05:41:25;;;;;;;5.45;3.35;;;13.10;91.30;;;;;;1905388;75;21098;-51
2023/04/23 05:43:54;;;;;;;6.75;2.70;;;13.10;91.10;;;;;;1905424;75;21011;-53
2023/04/23 05:46:24;;;;;;;3.62;2.87;;;13.10;91.10;;;;;;1905347;75;21036;-54
2023/04/23 05:48:53;;;;;;;7.62;3.90;;;13.20;91.20;;;;;;1905375;75;21192;-53
2023/04/23 05:51:22;;;;;;;7.03;3.10;;;13.20;91.10;;;;;;1905508;75;21123;-54
2023/04/23 05:53:50;;;;;;;5.53;2.72;;;13.20;91.30;;;;;;1905351;75;21065;-51
2023/04/23 05:56:20;;;;;;;5.83;3.22;;;13.10;91.30;;;;;;1905516;75;21095;-51
2023/04/23 05:58:49;;;;;;;4.90;2.60;;;13.10;91.20;;;;;;1905346;75;21105;-54
2023/04/23 06:01:18;;;;;;;4.55;2.77;;;13.20;91.30;;;;;;1905406;75;20984;-52
2023/04/23 06:03:47;;;;;;;13.25;6.62;;;13.10;91.30;;;;;;1905464;75;21008;-54
2023/04/23 06:06:16;;;;;;;9.25;4.50;;;13.20;91.40;;;;;;1905378;75;21450;-54
2023/04/23 06:08:45;;;;;;;7.15;3.58;;;13.20;91.40;;;;;;1905372;75;21098;-54
2023/04/23 06:11:15;;;;;;;6.42;3.10;;;13.30;91.40;;;;;;1905384;74;21048;-54
2023/04/23 06:13:43;;;;;;;7.78;2.87;;;13.40;91.30;;;;;;1905262;75;21001;-52
2023/04/23 06:16:13;;;;;;;3.42;2.50;;;13.40;91.20;;;;;;1905232;75;21028;-53
2023/04/23 06:18:42;;;;;;;8.70;2.62;;;13.50;91.20;;;;;;1905291;75;20983;-54
2023/04/23 06:21:11;;;;;;;7.95;3.45;;;13.60;91.20;;;;;;1905264;75;21003;-54
2023/04/23 06:23:40;;;;;;;11.28;3.08;;;13.60;91.10;;;;;;1905263;75;21092;-53
2023/04/23 06:26:09;;;;;;;5.47;2.50;;;13.70;91.10;;;;;;1905217;75;21000;-54
2023/04/23 06:28:38;;;;;;;9.43;3.20;;;13.70;91.10;;;;;;1905267;75;21485;-52
2023/04/23 06:31:15;;;;;;;7.62;2.67;;;13.80;91.10;;;;;;1903655;74;21039;-54
2023/04/23 06:33:45;;;;;;;5.03;2.52;;;13.80;91.00;;;;;;1924818;74;21023;-53
2023/04/23 06:36:14;;;;;;;7.70;3.27;;;13.90;91.00;;;;;;1924791;74;21402;-54
2023/04/23 06:38:43;;;;;;;3.17;2.72;;;13.90;90.90;;;;;;1924611;74;21010;-53
2023/04/23 06:41:12;;;;;;;7.05;3.25;;;14.00;90.80;;;;;;1924644;74;21015;-52
2023/04/23 06:43:42;;;;;;;10.13;3.67;;;14.00;90.70;;;;;;1924666;74;21035;-53
2023/04/23 06:46:25;;;;;;;7.78;2.75;;;14.00;90.70;;;;;;1923672;74;21164;-52
2023/04/23 06:48:54;;;;;;;9.98;3.98;;;14.10;90.60;;;;;;1924837;74;21093;-54
2023/04/23 06:51:26;;;;;;;6.85;2.65;;;14.10;90.50;;;;;;1924764;74;21064;-53
2023/04/23 06:53:56;;;;;;;6.35;3.08;;;14.20;90.60;;;;;;1924870;74;21096;-53
2023/04/23 06:56:26;;;;;;;8.78;2.98;;;14.20;90.40;;;;;;1924764;74;21051;-55
2023/04/23 06:58:55;;;;;;;6.03;2.85;;;14.20;90.40;;;;;;1924771;74;20999;-52
2023/04/23 07:01:24;;;;;;;5.12;3.40;;;14.30;90.40;;;;;;1924718;74;21065;-51
2023/04/23 07:03:54;;;;;;;6.47;2.98;;;14.40;90.30;;;;;;1924744;74;21088;-52
2023/04/23 07:06:23;;;;;;;3.95;2.95;;;14.50;90.20;;;;;;1924721;74;21003;-55
2023/04/23 07:08:52;;;;;;;3.60;2.67;;;14.50;89.80;;;;;;1924758;74;21007;-53
2023/04/23 07:11:21;;;;;;;7.45;3.22;;;14.40;89.20;;;;;;1924811;74;20998;-53
2023/04/23 07:13:50;;;;;;;5.60;3.02;;;14.40;89.20;;;;;;1924886;74;21018;-53
2023/04/23 07:16:21;;;;;;;4.92;3.00;;;14.30;89.30;;;;;;1924882;74;21047;-53
2023/04/23 07:18:50;;;;;;;6.53;3.05;;;14.40;89.00;;;;;;1925076;74;21050;-54
2023/04/23 07:21:19;;;;;;;5.28;2.85;;;14.30;89.50;;;;;;1924786;74;21074;-54
2023/04/23 07:23:48;;;;;;;6.05;2.95;;;14.30;89.20;;;;;;1924790;74;21068;-54
2023/04/23 07:26:18;;;;;;;9.65;3.45;;;14.40;89.10;;;;;;1924708;74;21089;-54
2023/04/23 07:28:47;;;;;;;4.75;3.25;;;14.40;88.50;;;;;;1924727;74;21011;-53
2023/04/23 07:31:16;;;;;;;8.98;4.47;;;14.30;88.60;;;;;;1924665;74;21027;-53
2023/04/23 07:33:45;;;;;;;6.97;3.30;;;14.40;88.50;;;;;;1924637;74;21015;-54
2023/04/23 07:36:14;;;;;;;4.95;3.02;;;14.40;88.40;;;;;;1924686;74;21019;-53
2023/04/23 07:38:43;;;;;;;5.15;2.62;;;14.40;87.60;;;;;;1924823;74;21135;-54
2023/04/23 07:41:12;;;;;;;7.45;2.52;;;14.40;87.80;;;;;;1924718;74;21003;-54
2023/04/23 07:43:42;;;;;;;5.78;2.77;;;14.40;87.50;;;;;;1924867;74;21034;-53
2023/04/23 07:46:11;;;;;;;4.05;2.77;;;14.40;87.80;;;;;;1924723;74;21015;-51
2023/04/23 07:48:40;;;;;;;6.58;3.25;;;14.50;87.80;;;;;;1924727;74;21502;-53
2023/04/23 07:51:09;;;;;;;3.92;3.10;;;14.50;88.50;;;;;;1924746;74;21062;-53
2023/04/23 07:53:39;;;;;;;4.53;2.70;;;14.50;88.10;;;;;;1924803;74;20983;-54
2023/04/23 07:56:08;;;;;;;6.92;4.53;;;14.60;87.80;;;;;;1924743;74;21011;-52
2023/04/23 07:58:37;;;;;;;6.35;3.12;;;14.60;87.90;;;;;;1924757;74;21080;-52
2023/04/23 08:01:06;;;;;;;6.78;3.45;;;14.70;87.60;;;;;;1924715;74;21038;-52
2023/04/23 08:03:35;;;;;;;6.00;2.72;;;14.80;87.90;;;;;;1924720;74;21003;-52
2023/04/23 08:06:05;;;;;;;4.28;2.83;;;14.90;86.90;;;;;;1924725;74;21120;-53
2023/04/23 08:08:34;;;;;;;10.48;4.62;;;15.10;86.60;;;;;;1924843;74;21017;-54
2023/04/23 08:11:04;;;;;;;5.47;2.77;;;15.20;86.60;;;;;;1924695;74;21006;-53
2023/04/23 08:13:33;;;;;;;3.70;2.85;;;15.30;85.40;;;;;;1924714;74;21072;-54
2023/04/23 08:16:01;;;;;;;5.70;2.87;;;15.30;85.40;;;;;;1924831;74;21003;-54
2023/04/23 08:18:30;;;;;;;5.47;2.75;;;15.30;85.40;;;;;;1924678;74;21023;-51
2023/04/23 08:21:00;;;;;;;7.28;3.10;;;15.30;85.20;;;;;;1924697;74;21035;-54
2023/04/23 08:23:29;;;;;;;3.33;2.65;;;15.30;85.50;;;;;;1924806;74;21002;-54
2023/04/23 08:25:58;;;;;;;4.55;3.12;;;15.30;85.00;;;;;;1924746;74;21019;-54
2023/04/23 08:28:27;;;;;;;7.97;3.83;;;15.20;84.90;;;;;;1924634;74;21129;-53
2023/04/23 08:30:56;;;;;;;6.08;3.25;;;15.20;85.10;;;;;;1924820;74;21034;-54
2023/04/23 08:33:26;;;;;;;6.58;3.67;;;15.20;85.50;;;;;;1917375;74;21040;-54
2023/04/23 08:35:55;;;;;;;9.70;3.30;;;15.20;85.30;;;;;;1905319;75;21019;-54
2023/04/23 08:38:24;;;;;;;8.35;3.92;;;15.20;85.20;;;;;;1905264;75;21019;-54
2023/04/23 08:40:56;;;;;;;13.22;3.80;;;15.20;85.00;;;;;;1905484;75;21118;-54
2023/04/23 08:43:28;;;;;;;5.70;3.35;;;15.20;85.30;;;;;;1905390;75;21065;-55
2023/04/23 08:45:59;;;;;;;7.45;3.15;;;15.20;85.30;;;;;;1905202;74;21216;-54
2023/04/23 08:48:29;;;;;;;5.25;2.92;;;15.30;85.30;;;;;;1905456;75;21548;-54
2023/04/23 08:50:59;;;;;;;9.10;3.58;;;15.40;85.50;;;;;;1905269;75;21145;-55
2023/04/23 08:53:28;;;;;;;6.80;3.15;;;15.50;85.30;;;;;;1905354;75;21012;-55
2023/04/23 08:55:59;;;;;;;5.70;3.62;;;15.60;84.70;;;;;;1905273;75;21094;-54
2023/04/23 08:58:28;;;;;;;6.28;3.05;;;15.70;84.50;;;;;;1905299;75;21129;-55
2023/04/23 09:00:58;;;;;;;5.90;3.20;;;15.60;84.50;;;;;;1905195;75;21007;-53
2023/04/23 09:03:28;;;;;;;6.28;3.58;;;15.60;84.40;;;;;;1905286;75;21031;-55
2023/04/23 09:05:57;;;;;;;9.05;3.92;;;15.60;84.50;;;;;;1905300;75;21019;-54
2023/04/23 09:08:27;;;;;;;17.65;3.37;;;15.60;84.60;;;;;;1905249;75;21068;-53
2023/04/23 09:10:58;;;;;;;9.65;7.90;;;15.70;84.60;;;;;;1905118;75;21516;-54
2023/04/23 09:13:27;;;;;;;8.08;3.33;;;15.80;84.30;;;;;;1905235;75;21470;-53
2023/04/23 09:15:56;;;;;;;4.72;2.60;;;15.90;84.30;;;;;;1905303;75;21097;-53
2023/04/23 09:18:26;;;;;;;7.87;2.98;;;16.00;83.90;;;;;;1905282;74;21089;-54
2023/04/23 09:20:55;;;;;;;4.30;3.15;;;16.20;83.60;;;;;;1905412;75;21003;-54
2023/04/23 09:23:24;;;;;;;6.00;2.52;;;16.30;82.70;;;;;;1905332;74;21069;-53
2023/04/23 09:25:54;;;;;;;5.20;2.98;;;16.40;81.90;;;;;;1905225;75;21109;-54
2023/04/23 09:28:37;;;;;;;2.72;2.02;;;16.50;81.20;;;;;;1905305;75;21093;-54
2023/04/23 09:31:06;;;;;;;5.25;2.62;;;16.50;81.00;;;;;;1905272;75;21073;-53
2023/04/23 09:33:36;;;;;;;6.42;3.10;;;16.60;81.70;;;;;;1905325;74;21051;-54
2023/04/23 09:36:11;;;;;;;6.75;3.20;;;16.60;81.40;;;;;;1905434;75;20984;-52
2023/04/23 09:38:41;;;;;;;6.72;2.90;;;16.70;80.70;;;;;;1905374;75;21059;-53
2023/04/23 09:41:27;;;;;;;4.85;2.70;;;16.70;79.70;;;;;;1905344;75;21075;-55
2023/04/23 09:43:57;;;;;;;6.95;3.15;;;16.70;80.30;;;;;;1905353;75;21098;-54
2023/04/23 09:46:41;;;;;;;6.20;3.12;;;16.70;80.40;;;;;;1905383;75;21008;-55
2023/04/23 09:49:11;;;;;;;3.25;2.30;;;16.70;80.70;;;;;;1905500;75;21031;-54
2023/04/23 09:51:46;;;;;;;6.70;2.75;;;16.70;80.70;;;;;;1905323;75;21075;-54
2023/04/23 09:54:24;;;;;;;7.53;3.65;;;16.70;80.30;;;;;;1905703;75;21430;-54
2023/04/23 09:56:59;;;;;;;5.33;2.67;;;16.70;80.40;;;;;;1905381;75;21130;-55
2023/04/23 09:59:29;;;;;;;3.47;2.47;;;16.70;79.60;;;;;;1905803;75;21012;-55
2023/04/23 10:02:01;;;;;;;8.13;3.52;;;16.70;79.50;;;;;;1905382;75;21063;-52
2023/04/23 10:04:30;;;;;;;3.75;2.90;;;16.60;79.80;;;;;;1904688;74;21027;-54
2023/04/23 10:07:01;;;;;;;5.30;2.80;;;16.50;80.40;;;;;;1905331;75;21007;-54
2023/04/23 10:09:31;;;;;;;19.55;3.95;;;16.40;80.50;;;;;;1905375;75;21007;-54
2023/04/23 10:12:02;;;;;;;5.75;2.83;;;16.40;80.60;;;;;;1905347;75;21003;-54
2023/04/23 10:14:31;;;;;;;4.87;2.98;;;16.30;81.20;;;;;;1905397;75;21062;-54
2023/04/23 10:17:02;;;;;;;4.15;2.17;;;16.30;81.40;;;;;;1905405;75;21043;-54
2023/04/23 10:19:32;;;;;;;4.58;2.50;;;16.20;81.50;;;;;;1905371;75;21015;-54
2023/04/23 10:22:06;;;;;;;9.90;3.83;;;16.10;81.70;;;;;;1905289;75;21027;-54
2023/04/23 10:24:39;;;;;;;5.80;2.83;;;16.10;82.00;;;;;;1905359;75;21168;-56
2023/04/23 10:27:11;;;;;;;3.27;2.62;;;16.10;81.70;;;;;;1904575;74;21023;-54
2023/04/23 10:29:41;;;;;;;4.60;3.05;;;16.00;81.10;;;;;;1905171;74;21351;-55
2023/04/23 10:32:11;;;;;;;4.62;2.58;;;16.10;81.30;;;;;;1905312;75;21069;-55
2023/04/23 10:34:41;;;;;;;5.87;2.80;;;16.10;81.40;;;;;;1905279;74;21863;-54
2023/04/23 10:37:11;;;;;;;6.53;2.98;;;16.10;81.20;;;;;;1905296;75;21019;-54
2023/04/23 10:39:43;;;;;;;6.33;2.40;;;16.10;81.30;;;;;;1905442;75;21071;-54
2023/04/23 10:42:13;;;;;;;3.62;2.67;;;16.10;81.10;;;;;;1905399;75;21012;-54
2023/04/23 10:44:43;;;;;;;6.47;3.17;;;16.10;81.30;;;;;;1905314;75;21078;-54
2023/04/23 10:47:19;;;;;;;9.20;3.52;;;16.10;82.10;;;;;;1905317;75;21082;-54
2023/04/23 10:49:48;;;;;;;3.83;2.95;;;16.10;81.60;;;;;;1905519;75;21156;-55
2023/04/23 10:52:19;;;;;;;4.40;2.95;;;16.20;81.60;;;;;;1905317;75;21027;-54
2023/04/23 10:54:50;;;;;;;3.58;2.65;;;16.30;81.70;;;;;;1905327;75;20987;-54
2023/04/23 10:57:19;;;;;;;3.85;3.08;;;16.40;81.70;;;;;;1905423;75;21066;-53
2023/04/23 10:59:57;;;;;;;11.33;4.58;;;16.50;81.50;;;;;;1905394;75;21027;-54
2023/04/23 11:02:26;;;;;;;4.67;2.90;;;16.70;81.50;;;;;;1905402;74;21032;-53
2023/04/23 11:05:00;;;;;;;5.47;3.33;;;16.80;80.90;;;;;;1905330;75;21023;-55
2023/04/23 11:07:33;;;;;;;3.72;2.75;;;17.00;80.60;;;;;;1905261;75;21019;-55
2023/04/23 11:10:13;;;;;;;5.45;2.30;;;17.10;79.70;;;;;;1905335;75;21028;-54
2023/04/23 11:12:43;;;;;;;3.60;2.50;;;17.10;79.60;;;;;;1904377;75;20996;-54
2023/04/23 11:15:14;;;;;;;3.62;2.50;;;17.20;79.60;;;;;;1905337;75;21097;-54
2023/04/23 11:17:50;;;;;;;6.17;2.77;;;17.30;78.40;;;;;;1905178;75;21028;-55
2023/04/23 11:20:23;;;;;;;4.33;2.25;;;17.30;78.00;;;;;;1904567;74;21083;-55
2023/04/23 11:22:53;;;;;;;3.40;2.35;;;17.30;78.00;;;;;;1905255;75;21015;-54
2023/04/23 11:25:27;;;;;;;2.92;2.20;;;17.30;78.10;;;;;;1905355;75;21007;-53
2023/04/23 11:27:57;;;;;;;4.92;2.72;;;17.30;78.00;;;;;;1905243;75;20995;-54
2023/04/23 11:30:28;;;;;;;5.17;2.55;;;17.30;77.40;;;;;;1905330;75;21069;-54
2023/04/23 11:32:59;;;;;;;5.50;2.72;;;17.30;77.10;;;;;;1905272;74;21044;-54
2023/04/23 11:35:32;;;;;;;3.70;2.22;;;17.30;76.90;;;;;;1905257;74;21023;-53
2023/04/23 11:37:59;;;;;;;7.50;2.75;;;17.40;76.80;;;;;;1905228;74;20995;-54
2023/04/23 11:40:29;;;;;;;2.67;2.02;;;17.40;76.60;;;;;;1905240;75;21032;-53
2023/04/23 11:42:59;;;;;;;4.15;3.02;;;17.40;76.40;;;;;;1905243;75;21083;-53
2023/04/23 11:45:29;;;;;;;2.52;2.12;;;17.40;75.40;;;;;;1905260;75;21019;-52
2023/04/23 11:48:00;;;;;;;3.85;2.27;;;17.30;75.00;;;;;;1905247;75;21019;-53
2023/04/23 11:50:35;;;;;;;4.25;2.45;;;17.30;73.80;;;;;;1905250;75;21019;-53
2023/04/23 11:53:06;;;;;;;;;;;17.20;73.70;;;;;;1908081;75;21097;-53
2023/04/23 11:55:36;;;;;;;4.42;1.92;;;17.20;73.70;;;;;;1905144;75;20376;-54
2023/04/23 11:58:06;;;;;;;5.20;2.33;;;17.30;75.20;;;;;;1905303;75;21023;-54
2023/04/23 12:00:35;;;;;;;4.22;2.12;;;17.30;75.00;;;;;;1905196;75;21459;-55
2023/04/23 12:03:05;;;;;;;6.17;2.25;;;17.40;74.60;;;;;;1905142;75;21067;-53
2023/04/23 12:05:36;;;;;;;7.70;2.40;;;17.40;74.40;;;;;;1905146;75;21019;-54
2023/04/23 12:08:19;;;;;;;5.25;2.47;;;17.40;74.60;;;;;;1905135;75;21081;-53
2023/04/23 12:10:56;;;;;;;2.98;2.27;;;17.30;74.70;;;;;;1905242;75;21019;-55
2023/04/23 12:13:29;;;;;;;4.37;2.37;;;17.30;74.50;;;;;;1905142;74;21494;-55
2023/04/23 12:16:00;;;;;;;3.72;2.05;;;17.20;74.70;;;;;;1905256;75;21016;-54
2023/04/23 12:18:32;;;;;;;2.47;2.25;;;17.10;76.10;;;;;;1904130;74;21032;-55
2023/04/23 12:21:12;;;;;;;4.12;2.20;;;17.10;77.00;;;;;;1905307;75;21019;-54
2023/04/23 12:23:47;;;;;;;8.08;2.85;;;17.00;77.50;;;;;;1904383;74;22064;-54
2023/04/23 12:26:15;;;;;;;6.75;4.58;;;16.90;77.90;;;;;;1903950;74;21481;-55
2023/04/23 12:28:51;;;;;;;3.05;2.37;;;16.80;78.20;;;;;;1905258;75;21063;-54
2023/04/23 12:31:24;;;;;;;3.50;2.05;;;16.80;78.50;;;;;;1905282;75;21016;-54
2023/04/23 12:34:06;;;;;;;4.87;2.30;;;16.80;78.60;;;;;;1905262;75;21066;-54
2023/04/23 12:36:37;;;;;;;2.95;2.72;;;16.80;78.80;;;;;;1905235;74;21047;-53
2023/04/23 12:39:28;;;;;;;2.52;2.25;;;16.90;79.30;;;;;;1905277;75;21080;-53
2023/04/23 12:42:03;;;;;;;3.62;2.20;;;17.00;79.20;;;;;;1905224;75;21027;-55
2023/04/23 12:44:34;;;;;;;4.97;3.05;;;17.10;78.60;;;;;;1905189;75;21066;-54
2023/04/23 12:47:06;;;;;;;3.22;2.05;;;17.10;78.40;;;;;;1904469;74;21028;-55
2023/04/23 12:49:36;;;;;;;3.17;2.15;;;17.20;78.00;;;;;;1905157;75;21023;-53
2023/04/23 12:52:06;;;;;;;3.08;2.35;;;17.30;77.60;;;;;;1905162;75;21029;-54
2023/04/23 12:54:37;;;;;;;7.08;2.85;;;17.30;77.70;;;;;;1905364;75;21027;-54
2023/04/23 12:57:09;;;;;;;2.75;2.12;;;17.40;77.60;;;;;;1905373;75;21023;-54
2023/04/23 12:59:38;;;;;;;2.92;2.25;;;17.40;77.20;;;;;;1905308;75;21423;-54
2023/04/23 13:02:07;;;;;;;4.42;2.20;;;17.40;77.20;;;;;;1905196;75;21023;-54
2023/04/23 13:04:37;;;;;;;5.87;2.45;;;17.50;76.60;;;;;;1905303;75;21035;-54